sensor_id;sensor_type;location;lat;lon;timestamp;temperature;humidity
25092;DHT22;13082;52.374;4.946;2024-02-15T00:00:41;12.40;99.90
25092;DHT22;13082;52.374;4.946;2024-02-15T00:03:08;12.40;99.90
25092;DHT22;13082;52.374;4.946;2024-02-15T00:05:38;12.40;99.90
25092;DHT22;13082;52.374;4.946;2024-02-15T00:08:04;12.40;99.90
25092;DHT22;13082;52.374;4.946;2024-02-15T00:10:31;12.40;99.90
25092;DHT22;13082;52.374;4.946;2024-02-15T00:12:57;12.40;99.90
25092;DHT22;13082;52.374;4.946;2024-02-15T00:15:23;12.40;99.90
25092;DHT22;13082;52.374;4.946;2024-02-15T00:17:48;12.30;99.90
25092;DHT22;13082;52.374;4.946;2024-02-15T00:20:14;12.30;99.90
25092;DHT22;13082;52.374;4.946;2024-02-15T00:22:40;12.30;99.90
25092;DHT22;13082;52.374;4.946;2024-02-15T00:25:08;12.30;99.90
25092;DHT22;13082;52.374;4.946;2024-02-15T00:27:35;12.30;99.90
25092;DHT22;13082;52.374;4.946;2024-02-15T00:30:02;12.30;99.90
25092;DHT22;13082;52.374;4.946;2024-02-15T00:32:27;12.30;99.90
25092;DHT22;13082;52.374;4.946;2024-02-15T00:34:53;12.30;99.90
25092;DHT22;13082;52.374;4.946;2024-02-15T00:37:19;12.30;99.90
25092;DHT22;13082;52.374;4.946;2024-02-15T00:39:45;12.30;99.90
25092;DHT22;13082;52.374;4.946;2024-02-15T00:42:10;12.30;99.90
25092;DHT22;13082;52.374;4.946;2024-02-15T00:44:36;12.30;99.90
25092;DHT22;13082;52.374;4.946;2024-02-15T00:47:02;12.30;99.90
25092;DHT22;13082;52.374;4.946;2024-02-15T00:49:28;12.30;99.90
25092;DHT22;13082;52.374;4.946;2024-02-15T00:51:54;12.40;99.90
25092;DHT22;13082;52.374;4.946;2024-02-15T00:54:19;12.40;99.90
25092;DHT22;13082;52.374;4.946;2024-02-15T00:56:45;12.40;99.90
25092;DHT22;13082;52.374;4.946;2024-02-15T00:59:10;12.40;99.90
25092;DHT22;13082;52.374;4.946;2024-02-15T01:01:36;12.40;99.90
25092;DHT22;13082;52.374;4.946;2024-02-15T01:04:06;12.40;99.90
25092;DHT22;13082;52.374;4.946;2024-02-15T01:06:31;12.40;99.90
25092;DHT22;13082;52.374;4.946;2024-02-15T01:08:59;12.40;99.90
25092;DHT22;13082;52.374;4.946;2024-02-15T01:11:27;12.40;99.90
25092;DHT22;13082;52.374;4.946;2024-02-15T01:13:54;12.40;99.90
25092;DHT22;13082;52.374;4.946;2024-02-15T01:16:19;12.40;99.90
25092;DHT22;13082;52.374;4.946;2024-02-15T01:18:48;12.40;99.90
25092;DHT22;13082;52.374;4.946;2024-02-15T01:21:14;12.50;99.90
25092;DHT22;13082;52.374;4.946;2024-02-15T01:23:39;12.50;99.90
25092;DHT22;13082;52.374;4.946;2024-02-15T01:26:05;12.50;99.90
25092;DHT22;13082;52.374;4.946;2024-02-15T01:28:31;12.50;99.90
25092;DHT22;13082;52.374;4.946;2024-02-15T01:30:56;12.50;99.90
25092;DHT22;13082;52.374;4.946;2024-02-15T01:33:22;12.50;99.90
25092;DHT22;13082;52.374;4.946;2024-02-15T01:35:47;12.50;99.90
25092;DHT22;13082;52.374;4.946;2024-02-15T01:38:14;12.50;99.90
25092;DHT22;13082;52.374;4.946;2024-02-15T01:40:40;12.50;99.90
25092;DHT22;13082;52.374;4.946;2024-02-15T01:43:05;12.50;99.90
25092;DHT22;13082;52.374;4.946;2024-02-15T01:45:31;12.60;99.90
25092;DHT22;13082;52.374;4.946;2024-02-15T01:47:57;12.50;99.90
25092;DHT22;13082;52.374;4.946;2024-02-15T01:50:24;12.60;99.90
25092;DHT22;13082;52.374;4.946;2024-02-15T01:52:52;12.50;99.90
25092;DHT22;13082;52.374;4.946;2024-02-15T01:55:18;12.50;99.90
25092;DHT22;13082;52.374;4.946;2024-02-15T01:57:45;12.60;99.90
25092;DHT22;13082;52.374;4.946;2024-02-15T02:00:15;12.50;99.90
25092;DHT22;13082;52.374;4.946;2024-02-15T02:02:44;12.60;99.90
25092;DHT22;13082;52.374;4.946;2024-02-15T02:05:10;12.60;99.90
25092;DHT22;13082;52.374;4.946;2024-02-15T02:07:36;12.60;99.90
25092;DHT22;13082;52.374;4.946;2024-02-15T02:10:02;12.60;99.90
25092;DHT22;13082;52.374;4.946;2024-02-15T02:12:28;12.60;99.90
25092;DHT22;13082;52.374;4.946;2024-02-15T02:14:54;12.60;99.90
25092;DHT22;13082;52.374;4.946;2024-02-15T02:17:20;12.60;99.90
25092;DHT22;13082;52.374;4.946;2024-02-15T02:19:46;12.60;99.90
25092;DHT22;13082;52.374;4.946;2024-02-15T02:22:16;12.50;99.90
25092;DHT22;13082;52.374;4.946;2024-02-15T02:25:07;12.50;99.90
25092;DHT22;13082;52.374;4.946;2024-02-15T02:27:35;12.50;99.90
25092;DHT22;13082;52.374;4.946;2024-02-15T02:30:03;12.50;99.90
25092;DHT22;13082;52.374;4.946;2024-02-15T02:32:32;12.50;99.90
25092;DHT22;13082;52.374;4.946;2024-02-15T02:35:00;12.50;99.90
25092;DHT22;13082;52.374;4.946;2024-02-15T02:37:26;12.50;99.90
25092;DHT22;13082;52.374;4.946;2024-02-15T02:39:52;12.50;99.90
25092;DHT22;13082;52.374;4.946;2024-02-15T02:42:18;12.50;99.90
25092;DHT22;13082;52.374;4.946;2024-02-15T02:44:43;12.50;99.90
25092;DHT22;13082;52.374;4.946;2024-02-15T02:47:10;12.50;99.90
25092;DHT22;13082;52.374;4.946;2024-02-15T02:49:36;12.50;99.90
25092;DHT22;13082;52.374;4.946;2024-02-15T02:52:02;12.50;99.90
25092;DHT22;13082;52.374;4.946;2024-02-15T02:54:28;12.50;99.90
25092;DHT22;13082;52.374;4.946;2024-02-15T02:56:54;12.50;99.90
25092;DHT22;13082;52.374;4.946;2024-02-15T02:59:20;12.50;99.90
25092;DHT22;13082;52.374;4.946;2024-02-15T03:01:47;12.50;99.90
25092;DHT22;13082;52.374;4.946;2024-02-15T03:04:15;12.50;99.90
25092;DHT22;13082;52.374;4.946;2024-02-15T03:06:42;12.60;99.90
25092;DHT22;13082;52.374;4.946;2024-02-15T03:09:08;12.60;99.90
25092;DHT22;13082;52.374;4.946;2024-02-15T03:11:35;12.50;99.90
25092;DHT22;13082;52.374;4.946;2024-02-15T03:14:01;12.50;99.90
25092;DHT22;13082;52.374;4.946;2024-02-15T03:16:32;12.60;99.90
25092;DHT22;13082;52.374;4.946;2024-02-15T03:18:59;12.60;99.90
25092;DHT22;13082;52.374;4.946;2024-02-15T03:21:28;12.50;99.90
25092;DHT22;13082;52.374;4.946;2024-02-15T03:23:53;12.50;99.90
25092;DHT22;13082;52.374;4.946;2024-02-15T03:26:29;12.50;99.90
25092;DHT22;13082;52.374;4.946;2024-02-15T03:28:57;12.50;99.90
25092;DHT22;13082;52.374;4.946;2024-02-15T03:31:22;12.60;99.90
25092;DHT22;13082;52.374;4.946;2024-02-15T03:33:48;12.60;99.90
25092;DHT22;13082;52.374;4.946;2024-02-15T03:36:16;12.60;99.90
25092;DHT22;13082;52.374;4.946;2024-02-15T03:38:43;12.50;99.90
25092;DHT22;13082;52.374;4.946;2024-02-15T03:41:10;12.50;99.90
25092;DHT22;13082;52.374;4.946;2024-02-15T03:43:35;12.60;99.90
25092;DHT22;13082;52.374;4.946;2024-02-15T03:46:01;12.60;99.90
25092;DHT22;13082;52.374;4.946;2024-02-15T03:48:27;12.60;99.90
25092;DHT22;13082;52.374;4.946;2024-02-15T03:50:52;12.50;99.90
25092;DHT22;13082;52.374;4.946;2024-02-15T03:53:18;12.50;99.90
25092;DHT22;13082;52.374;4.946;2024-02-15T03:55:43;12.50;99.90
25092;DHT22;13082;52.374;4.946;2024-02-15T03:58:09;12.50;99.90
25092;DHT22;13082;52.374;4.946;2024-02-15T04:00:35;12.50;99.90
25092;DHT22;13082;52.374;4.946;2024-02-15T04:03:01;12.50;99.90
25092;DHT22;13082;52.374;4.946;2024-02-15T04:05:26;12.50;99.90
25092;DHT22;13082;52.374;4.946;2024-02-15T04:07:52;12.50;99.90
25092;DHT22;13082;52.374;4.946;2024-02-15T04:10:19;12.50;99.90
25092;DHT22;13082;52.374;4.946;2024-02-15T04:12:44;12.50;99.90
25092;DHT22;13082;52.374;4.946;2024-02-15T04:15:10;12.50;99.90
25092;DHT22;13082;52.374;4.946;2024-02-15T04:17:42;12.50;99.90
25092;DHT22;13082;52.374;4.946;2024-02-15T04:20:10;12.50;99.90
25092;DHT22;13082;52.374;4.946;2024-02-15T04:22:37;12.50;99.90
25092;DHT22;13082;52.374;4.946;2024-02-15T04:25:05;12.50;99.90
25092;DHT22;13082;52.374;4.946;2024-02-15T04:27:31;12.50;99.90
25092;DHT22;13082;52.374;4.946;2024-02-15T04:29:57;12.50;99.90
25092;DHT22;13082;52.374;4.946;2024-02-15T04:32:22;12.50;99.90
25092;DHT22;13082;52.374;4.946;2024-02-15T04:34:48;12.50;99.90
25092;DHT22;13082;52.374;4.946;2024-02-15T04:37:14;12.40;99.90
25092;DHT22;13082;52.374;4.946;2024-02-15T04:39:40;12.40;99.90
25092;DHT22;13082;52.374;4.946;2024-02-15T04:42:06;12.40;99.90
25092;DHT22;13082;52.374;4.946;2024-02-15T04:44:35;12.40;99.90
25092;DHT22;13082;52.374;4.946;2024-02-15T04:47:03;12.40;99.90
25092;DHT22;13082;52.374;4.946;2024-02-15T04:49:29;12.40;99.90
25092;DHT22;13082;52.374;4.946;2024-02-15T04:51:55;12.40;99.90
25092;DHT22;13082;52.374;4.946;2024-02-15T04:54:22;12.40;99.90
25092;DHT22;13082;52.374;4.946;2024-02-15T04:56:48;12.40;99.90
25092;DHT22;13082;52.374;4.946;2024-02-15T04:59:16;12.40;99.90
25092;DHT22;13082;52.374;4.946;2024-02-15T05:01:42;12.40;99.90
25092;DHT22;13082;52.374;4.946;2024-02-15T05:04:11;12.40;99.90
25092;DHT22;13082;52.374;4.946;2024-02-15T05:06:37;12.30;99.90
25092;DHT22;13082;52.374;4.946;2024-02-15T05:09:04;12.30;99.90
25092;DHT22;13082;52.374;4.946;2024-02-15T05:11:42;12.30;99.90
25092;DHT22;13082;52.374;4.946;2024-02-15T05:14:11;12.30;99.90
25092;DHT22;13082;52.374;4.946;2024-02-15T05:16:37;12.30;99.90
25092;DHT22;13082;52.374;4.946;2024-02-15T05:19:08;12.30;99.90
25092;DHT22;13082;52.374;4.946;2024-02-15T05:21:36;12.30;99.90
25092;DHT22;13082;52.374;4.946;2024-02-15T05:24:03;12.30;99.90
25092;DHT22;13082;52.374;4.946;2024-02-15T05:26:29;12.30;99.90
25092;DHT22;13082;52.374;4.946;2024-02-15T05:28:55;12.30;99.90
25092;DHT22;13082;52.374;4.946;2024-02-15T05:31:21;12.30;99.90
25092;DHT22;13082;52.374;4.946;2024-02-15T05:33:51;12.30;99.90
25092;DHT22;13082;52.374;4.946;2024-02-15T05:36:20;12.40;99.90
25092;DHT22;13082;52.374;4.946;2024-02-15T05:38:51;12.40;99.90
25092;DHT22;13082;52.374;4.946;2024-02-15T05:41:17;12.40;99.90
25092;DHT22;13082;52.374;4.946;2024-02-15T05:43:43;12.40;99.90
25092;DHT22;13082;52.374;4.946;2024-02-15T05:46:09;12.40;99.90
25092;DHT22;13082;52.374;4.946;2024-02-15T05:48:36;12.40;99.90
25092;DHT22;13082;52.374;4.946;2024-02-15T05:51:03;12.40;99.90
25092;DHT22;13082;52.374;4.946;2024-02-15T05:53:29;12.40;99.90
25092;DHT22;13082;52.374;4.946;2024-02-15T05:55:55;12.40;99.90
25092;DHT22;13082;52.374;4.946;2024-02-15T05:58:23;12.40;99.90
25092;DHT22;13082;52.374;4.946;2024-02-15T06:00:49;12.40;99.90
25092;DHT22;13082;52.374;4.946;2024-02-15T06:03:19;12.40;99.90
25092;DHT22;13082;52.374;4.946;2024-02-15T06:05:47;12.40;99.90
25092;DHT22;13082;52.374;4.946;2024-02-15T06:08:13;12.40;99.90
25092;DHT22;13082;52.374;4.946;2024-02-15T06:10:39;12.40;99.90
25092;DHT22;13082;52.374;4.946;2024-02-15T06:13:05;12.40;99.90
25092;DHT22;13082;52.374;4.946;2024-02-15T06:15:31;12.40;99.90
25092;DHT22;13082;52.374;4.946;2024-02-15T06:17:57;12.40;99.90
25092;DHT22;13082;52.374;4.946;2024-02-15T06:20:23;12.40;99.90
25092;DHT22;13082;52.374;4.946;2024-02-15T06:22:50;12.40;99.90
25092;DHT22;13082;52.374;4.946;2024-02-15T06:25:17;12.40;99.90
25092;DHT22;13082;52.374;4.946;2024-02-15T06:27:46;12.40;99.90
25092;DHT22;13082;52.374;4.946;2024-02-15T06:30:12;12.50;99.90
25092;DHT22;13082;52.374;4.946;2024-02-15T06:32:57;12.50;99.90
25092;DHT22;13082;52.374;4.946;2024-02-15T06:35:41;12.50;99.90
25092;DHT22;13082;52.374;4.946;2024-02-15T06:38:26;12.50;99.90
25092;DHT22;13082;52.374;4.946;2024-02-15T06:41:10;12.50;99.90
25092;DHT22;13082;52.374;4.946;2024-02-15T06:43:36;12.50;99.90
25092;DHT22;13082;52.374;4.946;2024-02-15T06:46:02;12.50;99.90
25092;DHT22;13082;52.374;4.946;2024-02-15T06:48:31;12.50;99.90
25092;DHT22;13082;52.374;4.946;2024-02-15T06:50:57;12.50;99.90
25092;DHT22;13082;52.374;4.946;2024-02-15T06:53:22;12.50;99.90
25092;DHT22;13082;52.374;4.946;2024-02-15T06:55:48;12.50;99.90
25092;DHT22;13082;52.374;4.946;2024-02-15T06:58:17;12.50;99.90
25092;DHT22;13082;52.374;4.946;2024-02-15T07:00:43;12.50;99.90
25092;DHT22;13082;52.374;4.946;2024-02-15T07:03:09;12.50;99.90
25092;DHT22;13082;52.374;4.946;2024-02-15T07:05:36;12.50;99.90
25092;DHT22;13082;52.374;4.946;2024-02-15T07:08:07;12.50;99.90
25092;DHT22;13082;52.374;4.946;2024-02-15T07:10:33;12.50;99.90
25092;DHT22;13082;52.374;4.946;2024-02-15T07:12:59;12.50;99.90
25092;DHT22;13082;52.374;4.946;2024-02-15T07:15:25;12.40;99.90
25092;DHT22;13082;52.374;4.946;2024-02-15T07:17:51;12.50;99.90
25092;DHT22;13082;52.374;4.946;2024-02-15T07:20:20;12.50;99.90
25092;DHT22;13082;52.374;4.946;2024-02-15T07:22:47;12.40;99.90
25092;DHT22;13082;52.374;4.946;2024-02-15T07:25:13;12.40;99.90
25092;DHT22;13082;52.374;4.946;2024-02-15T07:27:39;12.50;99.90
25092;DHT22;13082;52.374;4.946;2024-02-15T07:30:06;12.40;99.90
25092;DHT22;13082;52.374;4.946;2024-02-15T07:32:34;12.40;99.90
25092;DHT22;13082;52.374;4.946;2024-02-15T07:35:01;12.40;99.90
25092;DHT22;13082;52.374;4.946;2024-02-15T07:37:26;12.50;99.90
25092;DHT22;13082;52.374;4.946;2024-02-15T07:39:52;12.50;99.90
25092;DHT22;13082;52.374;4.946;2024-02-15T07:42:18;12.50;99.90
25092;DHT22;13082;52.374;4.946;2024-02-15T07:44:44;12.50;99.90
25092;DHT22;13082;52.374;4.946;2024-02-15T07:47:09;12.50;99.90
25092;DHT22;13082;52.374;4.946;2024-02-15T07:49:36;12.50;99.90
25092;DHT22;13082;52.374;4.946;2024-02-15T07:52:02;12.50;99.90
25092;DHT22;13082;52.374;4.946;2024-02-15T07:54:30;12.40;99.90
25092;DHT22;13082;52.374;4.946;2024-02-15T07:56:56;12.40;99.90
25092;DHT22;13082;52.374;4.946;2024-02-15T07:59:23;12.50;99.90
25092;DHT22;13082;52.374;4.946;2024-02-15T08:01:49;12.50;99.90
25092;DHT22;13082;52.374;4.946;2024-02-15T08:04:18;12.50;99.90
25092;DHT22;13082;52.374;4.946;2024-02-15T08:06:44;12.50;99.90
25092;DHT22;13082;52.374;4.946;2024-02-15T08:09:10;12.50;99.90
25092;DHT22;13082;52.374;4.946;2024-02-15T08:11:39;12.50;99.90
25092;DHT22;13082;52.374;4.946;2024-02-15T08:14:05;12.50;99.90
25092;DHT22;13082;52.374;4.946;2024-02-15T08:16:33;12.50;99.90
25092;DHT22;13082;52.374;4.946;2024-02-15T08:19:00;12.50;99.90
25092;DHT22;13082;52.374;4.946;2024-02-15T08:21:27;12.50;99.90
25092;DHT22;13082;52.374;4.946;2024-02-15T08:23:55;12.50;99.90
25092;DHT22;13082;52.374;4.946;2024-02-15T08:26:21;12.50;99.90
25092;DHT22;13082;52.374;4.946;2024-02-15T08:28:47;12.50;99.90
25092;DHT22;13082;52.374;4.946;2024-02-15T08:31:12;12.50;99.90
25092;DHT22;13082;52.374;4.946;2024-02-15T08:33:41;12.50;99.90
25092;DHT22;13082;52.374;4.946;2024-02-15T08:36:08;12.50;99.90
25092;DHT22;13082;52.374;4.946;2024-02-15T08:38:36;12.50;99.90
25092;DHT22;13082;52.374;4.946;2024-02-15T08:41:03;12.50;99.90
25092;DHT22;13082;52.374;4.946;2024-02-15T08:43:30;12.50;99.90
25092;DHT22;13082;52.374;4.946;2024-02-15T08:45:59;12.60;99.90
25092;DHT22;13082;52.374;4.946;2024-02-15T08:48:24;12.50;99.90
25092;DHT22;13082;52.374;4.946;2024-02-15T08:50:51;12.50;99.90
25092;DHT22;13082;52.374;4.946;2024-02-15T08:53:17;12.50;99.90
25092;DHT22;13082;52.374;4.946;2024-02-15T08:55:45;12.50;99.90
25092;DHT22;13082;52.374;4.946;2024-02-15T08:58:11;12.50;99.90
25092;DHT22;13082;52.374;4.946;2024-02-15T09:00:36;12.50;99.90
25092;DHT22;13082;52.374;4.946;2024-02-15T09:03:06;12.50;99.90
25092;DHT22;13082;52.374;4.946;2024-02-15T09:05:32;12.60;99.90
25092;DHT22;13082;52.374;4.946;2024-02-15T09:07:58;12.60;99.90
25092;DHT22;13082;52.374;4.946;2024-02-15T09:10:23;12.60;99.90
25092;DHT22;13082;52.374;4.946;2024-02-15T09:12:49;12.60;99.90
25092;DHT22;13082;52.374;4.946;2024-02-15T09:15:15;12.60;99.90
25092;DHT22;13082;52.374;4.946;2024-02-15T09:17:41;12.60;99.90
25092;DHT22;13082;52.374;4.946;2024-02-15T09:20:10;12.60;99.90
25092;DHT22;13082;52.374;4.946;2024-02-15T09:23:00;12.60;99.90
25092;DHT22;13082;52.374;4.946;2024-02-15T09:25:30;12.60;99.90
25092;DHT22;13082;52.374;4.946;2024-02-15T09:27:56;12.60;99.90
25092;DHT22;13082;52.374;4.946;2024-02-15T09:30:22;12.60;99.90
25092;DHT22;13082;52.374;4.946;2024-02-15T09:32:50;12.60;99.90
25092;DHT22;13082;52.374;4.946;2024-02-15T09:35:16;12.70;99.90
25092;DHT22;13082;52.374;4.946;2024-02-15T09:37:46;12.70;99.90
25092;DHT22;13082;52.374;4.946;2024-02-15T09:40:16;12.70;99.90
25092;DHT22;13082;52.374;4.946;2024-02-15T09:42:43;12.70;99.90
25092;DHT22;13082;52.374;4.946;2024-02-15T09:45:11;12.70;99.90
25092;DHT22;13082;52.374;4.946;2024-02-15T09:47:38;12.70;99.90
25092;DHT22;13082;52.374;4.946;2024-02-15T09:50:07;12.70;99.90
25092;DHT22;13082;52.374;4.946;2024-02-15T09:52:34;12.70;99.90
25092;DHT22;13082;52.374;4.946;2024-02-15T09:55:03;12.70;99.90
25092;DHT22;13082;52.374;4.946;2024-02-15T09:57:30;12.70;99.90
25092;DHT22;13082;52.374;4.946;2024-02-15T09:59:58;12.70;99.90
25092;DHT22;13082;52.374;4.946;2024-02-15T10:02:26;12.70;99.90
25092;DHT22;13082;52.374;4.946;2024-02-15T10:04:53;12.70;99.90
25092;DHT22;13082;52.374;4.946;2024-02-15T10:07:24;12.70;99.90
25092;DHT22;13082;52.374;4.946;2024-02-15T10:09:50;12.70;99.90
25092;DHT22;13082;52.374;4.946;2024-02-15T10:12:17;12.70;99.90
25092;DHT22;13082;52.374;4.946;2024-02-15T10:14:48;12.80;99.90
25092;DHT22;13082;52.374;4.946;2024-02-15T10:17:19;12.80;99.90
25092;DHT22;13082;52.374;4.946;2024-02-15T10:20:03;12.80;99.90
25092;DHT22;13082;52.374;4.946;2024-02-15T10:22:29;12.80;99.90
25092;DHT22;13082;52.374;4.946;2024-02-15T10:25:21;12.80;99.90
25092;DHT22;13082;52.374;4.946;2024-02-15T10:27:48;12.80;99.90
25092;DHT22;13082;52.374;4.946;2024-02-15T10:30:20;12.80;99.90
25092;DHT22;13082;52.374;4.946;2024-02-15T10:32:46;12.90;99.90
25092;DHT22;13082;52.374;4.946;2024-02-15T10:35:22;12.90;99.90
25092;DHT22;13082;52.374;4.946;2024-02-15T10:37:49;12.80;99.90
25092;DHT22;13082;52.374;4.946;2024-02-15T10:40:19;12.80;99.90
25092;DHT22;13082;52.374;4.946;2024-02-15T10:42:47;12.80;99.90
25092;DHT22;13082;52.374;4.946;2024-02-15T10:45:15;12.80;99.90
25092;DHT22;13082;52.374;4.946;2024-02-15T10:47:44;12.90;99.90
25092;DHT22;13082;52.374;4.946;2024-02-15T10:50:11;12.90;99.90
25092;DHT22;13082;52.374;4.946;2024-02-15T10:53:00;12.90;99.90
25092;DHT22;13082;52.374;4.946;2024-02-15T10:55:38;12.90;99.90
25092;DHT22;13082;52.374;4.946;2024-02-15T10:58:06;12.90;99.90
25092;DHT22;13082;52.374;4.946;2024-02-15T11:00:33;12.90;99.90
25092;DHT22;13082;52.374;4.946;2024-02-15T11:03:04;12.90;99.90
25092;DHT22;13082;52.374;4.946;2024-02-15T11:05:36;12.90;99.90
25092;DHT22;13082;52.374;4.946;2024-02-15T11:08:07;12.90;99.90
25092;DHT22;13082;52.374;4.946;2024-02-15T11:10:37;12.90;99.90
25092;DHT22;13082;52.374;4.946;2024-02-15T11:13:04;13.00;99.90
25092;DHT22;13082;52.374;4.946;2024-02-15T11:18:05;13.00;99.90
25092;DHT22;13082;52.374;4.946;2024-02-15T11:23:02;13.10;99.90
25092;DHT22;13082;52.374;4.946;2024-02-15T11:25:33;13.10;99.90
25092;DHT22;13082;52.374;4.946;2024-02-15T11:30:52;13.20;99.90
25092;DHT22;13082;52.374;4.946;2024-02-15T11:33:32;13.20;99.90
25092;DHT22;13082;52.374;4.946;2024-02-15T11:38:36;13.30;99.90
25092;DHT22;13082;52.374;4.946;2024-02-15T11:41:06;13.30;99.90
25092;DHT22;13082;52.374;4.946;2024-02-15T11:46:15;13.40;99.90
25092;DHT22;13082;52.374;4.946;2024-02-15T11:48:46;13.40;99.90
25092;DHT22;13082;52.374;4.946;2024-02-15T11:51:35;13.40;99.90
25092;DHT22;13082;52.374;4.946;2024-02-15T11:54:10;13.50;99.90
25092;DHT22;13082;52.374;4.946;2024-02-15T11:56:55;13.50;99.90
25092;DHT22;13082;52.374;4.946;2024-02-15T11:59:39;13.50;99.90
25092;DHT22;13082;52.374;4.946;2024-02-15T12:02:19;13.60;99.90
25092;DHT22;13082;52.374;4.946;2024-02-15T12:05:04;13.60;99.90
25092;DHT22;13082;52.374;4.946;2024-02-15T12:07:49;13.60;99.90
25092;DHT22;13082;52.374;4.946;2024-02-15T12:10:33;13.70;99.90
25092;DHT22;13082;52.374;4.946;2024-02-15T12:13:18;13.70;99.90
25092;DHT22;13082;52.374;4.946;2024-02-15T12:16:02;13.70;99.90
25092;DHT22;13082;52.374;4.946;2024-02-15T12:18:46;13.70;99.90
25092;DHT22;13082;52.374;4.946;2024-02-15T12:21:21;13.80;99.90
25092;DHT22;13082;52.374;4.946;2024-02-15T12:23:48;13.80;99.90
25092;DHT22;13082;52.374;4.946;2024-02-15T12:26:19;13.80;99.90
25092;DHT22;13082;52.374;4.946;2024-02-15T12:28:52;13.90;99.90
25092;DHT22;13082;52.374;4.946;2024-02-15T12:31:20;13.90;99.90
25092;DHT22;13082;52.374;4.946;2024-02-15T12:33:46;13.90;99.90
25092;DHT22;13082;52.374;4.946;2024-02-15T12:36:14;14.00;99.90
25092;DHT22;13082;52.374;4.946;2024-02-15T12:38:39;14.00;99.90
25092;DHT22;13082;52.374;4.946;2024-02-15T12:41:20;14.00;99.90
25092;DHT22;13082;52.374;4.946;2024-02-15T12:43:46;14.10;99.90
25092;DHT22;13082;52.374;4.946;2024-02-15T12:46:12;14.10;99.90
25092;DHT22;13082;52.374;4.946;2024-02-15T12:48:42;14.20;99.90
25092;DHT22;13082;52.374;4.946;2024-02-15T12:51:15;14.20;99.90
25092;DHT22;13082;52.374;4.946;2024-02-15T12:53:41;14.30;99.90
25092;DHT22;13082;52.374;4.946;2024-02-15T12:56:07;14.30;99.90
25092;DHT22;13082;52.374;4.946;2024-02-15T12:58:35;14.30;99.90
25092;DHT22;13082;52.374;4.946;2024-02-15T13:01:01;14.40;99.90
25092;DHT22;13082;52.374;4.946;2024-02-15T13:03:27;14.40;99.90
25092;DHT22;13082;52.374;4.946;2024-02-15T13:05:53;14.50;99.90
25092;DHT22;13082;52.374;4.946;2024-02-15T13:08:18;14.60;99.90
25092;DHT22;13082;52.374;4.946;2024-02-15T13:10:45;14.70;99.90
25092;DHT22;13082;52.374;4.946;2024-02-15T13:13:11;14.70;99.90
25092;DHT22;13082;52.374;4.946;2024-02-15T13:15:37;14.80;99.90
25092;DHT22;13082;52.374;4.946;2024-02-15T13:18:03;14.90;99.90
25092;DHT22;13082;52.374;4.946;2024-02-15T13:20:35;15.00;99.90
25092;DHT22;13082;52.374;4.946;2024-02-15T13:23:10;15.10;99.90
25092;DHT22;13082;52.374;4.946;2024-02-15T13:25:47;15.20;99.90
25092;DHT22;13082;52.374;4.946;2024-02-15T13:28:14;15.40;99.90
25092;DHT22;13082;52.374;4.946;2024-02-15T13:30:40;15.50;99.90
25092;DHT22;13082;52.374;4.946;2024-02-15T13:33:07;15.60;99.90
25092;DHT22;13082;52.374;4.946;2024-02-15T13:35:33;15.60;99.90
25092;DHT22;13082;52.374;4.946;2024-02-15T13:37:59;15.60;99.90
25092;DHT22;13082;52.374;4.946;2024-02-15T13:40:27;15.70;99.90
25092;DHT22;13082;52.374;4.946;2024-02-15T13:43:00;15.70;99.90
25092;DHT22;13082;52.374;4.946;2024-02-15T13:45:40;15.70;99.90
25092;DHT22;13082;52.374;4.946;2024-02-15T13:48:06;15.70;99.90
25092;DHT22;13082;52.374;4.946;2024-02-15T13:50:34;15.70;99.90
25092;DHT22;13082;52.374;4.946;2024-02-15T13:53:00;15.60;99.90
25092;DHT22;13082;52.374;4.946;2024-02-15T13:55:27;15.60;99.90
25092;DHT22;13082;52.374;4.946;2024-02-15T13:57:54;15.50;99.90
25092;DHT22;13082;52.374;4.946;2024-02-15T14:00:22;15.50;99.90
25092;DHT22;13082;52.374;4.946;2024-02-15T14:02:52;15.60;99.90
25092;DHT22;13082;52.374;4.946;2024-02-15T14:05:19;15.60;99.90
25092;DHT22;13082;52.374;4.946;2024-02-15T14:07:49;15.60;99.90
25092;DHT22;13082;52.374;4.946;2024-02-15T14:10:19;15.60;99.90
25092;DHT22;13082;52.374;4.946;2024-02-15T14:12:47;15.60;99.90
25092;DHT22;13082;52.374;4.946;2024-02-15T14:15:16;15.60;99.90
25092;DHT22;13082;52.374;4.946;2024-02-15T14:17:45;15.50;99.90
25092;DHT22;13082;52.374;4.946;2024-02-15T14:20:12;15.50;99.90
25092;DHT22;13082;52.374;4.946;2024-02-15T14:22:46;15.50;99.90
25092;DHT22;13082;52.374;4.946;2024-02-15T14:25:15;15.50;99.90
25092;DHT22;13082;52.374;4.946;2024-02-15T14:27:41;15.50;99.90
25092;DHT22;13082;52.374;4.946;2024-02-15T14:30:08;15.60;99.90
25092;DHT22;13082;52.374;4.946;2024-02-15T14:32:52;15.60;99.90
25092;DHT22;13082;52.374;4.946;2024-02-15T14:35:31;15.60;99.90
25092;DHT22;13082;52.374;4.946;2024-02-15T14:38:03;15.60;99.90
25092;DHT22;13082;52.374;4.946;2024-02-15T14:40:33;15.60;99.90
25092;DHT22;13082;52.374;4.946;2024-02-15T14:42:59;15.60;99.90
25092;DHT22;13082;52.374;4.946;2024-02-15T14:45:25;15.50;99.90
25092;DHT22;13082;52.374;4.946;2024-02-15T14:47:51;15.50;99.90
25092;DHT22;13082;52.374;4.946;2024-02-15T14:50:17;15.50;99.90
25092;DHT22;13082;52.374;4.946;2024-02-15T14:52:43;15.50;99.90
25092;DHT22;13082;52.374;4.946;2024-02-15T14:55:09;15.60;99.90
25092;DHT22;13082;52.374;4.946;2024-02-15T14:57:35;15.60;99.90
25092;DHT22;13082;52.374;4.946;2024-02-15T15:00:05;15.60;99.90
25092;DHT22;13082;52.374;4.946;2024-02-15T15:02:38;15.60;99.90
25092;DHT22;13082;52.374;4.946;2024-02-15T15:05:04;15.50;99.90
25092;DHT22;13082;52.374;4.946;2024-02-15T15:08:08;15.60;99.90
25092;DHT22;13082;52.374;4.946;2024-02-15T15:10:54;15.60;99.90
25092;DHT22;13082;52.374;4.946;2024-02-15T15:13:38;15.60;99.90
25092;DHT22;13082;52.374;4.946;2024-02-15T15:16:05;15.50;99.90
25092;DHT22;13082;52.374;4.946;2024-02-15T15:18:33;15.50;99.90
25092;DHT22;13082;52.374;4.946;2024-02-15T15:21:02;15.60;99.90
25092;DHT22;13082;52.374;4.946;2024-02-15T15:23:28;15.50;99.90
25092;DHT22;13082;52.374;4.946;2024-02-15T15:26:03;15.60;99.90
25092;DHT22;13082;52.374;4.946;2024-02-15T15:28:28;15.50;99.90
25092;DHT22;13082;52.374;4.946;2024-02-15T15:30:54;15.60;99.90
25092;DHT22;13082;52.374;4.946;2024-02-15T15:33:20;15.50;99.90
25092;DHT22;13082;52.374;4.946;2024-02-15T15:35:47;15.50;99.90
25092;DHT22;13082;52.374;4.946;2024-02-15T15:38:13;15.50;99.90
25092;DHT22;13082;52.374;4.946;2024-02-15T15:40:38;15.50;99.90
25092;DHT22;13082;52.374;4.946;2024-02-15T15:43:04;15.50;99.90
25092;DHT22;13082;52.374;4.946;2024-02-15T15:45:32;15.50;99.90
25092;DHT22;13082;52.374;4.946;2024-02-15T15:47:58;15.50;99.90
25092;DHT22;13082;52.374;4.946;2024-02-15T15:50:26;15.60;99.90